Time;durP1;ratioP1;P1;durP2;ratioP2;P2;SDS_P1;SDS_P2;PMS_P1;PMS_P2;Temp;Humidity;BMP_temperature;BMP_pressure;BME280_temperature;BME280_humidity;BME280_pressure;Samples;Min_cycle;Max_cycle;Signal;HPM_P1;HPM_P2
2022/10/28 00:00:30;;;;;;;17.15;8.68;;;;;;;15.18;100.00;101647.59;5083633;28;20356;-68
2022/10/28 00:02:59;;;;;;;16.65;8.02;;;;;;;15.17;100.00;101643.16;5085100;28;20025;-69
2022/10/28 00:05:24;;;;;;;17.90;9.18;;;;;;;15.17;100.00;101644.94;5084043;28;20405;-68
2022/10/28 00:07:49;;;;;;;15.68;8.93;;;;;;;15.14;100.00;101640.50;5084750;28;20028;-67
2022/10/28 00:10:15;;;;;;;21.30;9.10;;;;;;;15.14;100.00;101640.50;5078160;28;20078;-67
2022/10/28 00:12:40;;;;;;;14.88;8.23;;;;;;;15.17;100.00;101635.22;5091569;28;20157;-68
2022/10/28 00:15:06;;;;;;;16.13;8.48;;;;;;;15.18;100.00;101631.69;5091332;28;20031;-68
2022/10/28 00:17:31;;;;;;;13.73;8.65;;;;;;;15.20;100.00;101631.72;5084032;28;20028;-69
2022/10/28 00:19:56;;;;;;;16.92;8.25;;;;;;;15.20;100.00;101628.19;5089900;28;20106;-68
2022/10/28 00:22:22;;;;;;;19.60;9.52;;;;;;;15.21;100.00;101624.66;5090339;28;20107;-69
2022/10/28 00:24:47;;;;;;;21.00;8.68;;;;;;;15.20;100.00;101622.88;5091033;28;20374;-69
2022/10/28 00:27:12;;;;;;;17.48;9.02;;;;;;;15.19;100.00;101627.28;5092365;28;20368;-69
2022/10/28 00:29:38;;;;;;;16.02;9.25;;;;;;;15.16;100.00;101628.13;5085362;28;20114;-68
2022/10/28 00:32:03;;;;;;;24.17;9.55;;;;;;;15.17;100.00;101634.34;5089586;28;20034;-68
2022/10/28 00:34:28;;;;;;;14.80;8.88;;;;;;;15.17;100.00;101639.63;5078111;28;20104;-68
2022/10/28 00:36:54;;;;;;;17.38;9.23;;;;;;;15.15;100.00;101642.28;5088616;28;20020;-67
2022/10/28 00:39:22;;;;;;;17.90;7.93;;;;;;;15.13;100.00;101638.72;5091713;28;20032;-68
2022/10/28 00:41:58;;;;;;;16.50;9.30;;;;;;;15.12;100.00;101641.34;5082482;28;20028;-68
2022/10/28 00:44:38;;;;;;;17.02;9.18;;;;;;;15.09;100.00;101631.59;5092572;28;20016;-68
2022/10/28 00:47:16;;;;;;;13.98;9.05;;;;;;;15.05;100.00;101629.78;5091483;28;20110;-68
2022/10/28 00:49:44;;;;;;;17.05;9.25;;;;;;;15.01;100.00;101630.63;5080083;28;20044;-68
2022/10/28 00:52:16;;;;;;;16.73;8.73;;;;;;;14.97;100.00;101628.81;5076766;28;20029;-68
2022/10/28 00:54:43;;;;;;;14.55;9.15;;;;;;;14.93;100.00;101613.75;5088376;28;20438;-68
2022/10/28 00:57:14;;;;;;;15.23;9.32;;;;;;;14.93;100.00;101619.06;5091325;28;20036;-68
2022/10/28 00:59:44;;;;;;;21.58;9.93;;;;;;;14.88;100.00;101616.38;5084453;28;20028;-68
2022/10/28 01:02:10;;;;;;;20.17;8.55;;;;;;;14.84;100.00;101626.03;5089636;28;20031;-68
2022/10/28 01:04:36;;;;;;;19.98;9.52;;;;;;;14.81;100.00;101615.41;5081181;28;20103;-68
2022/10/28 01:07:01;;;;;;;20.02;9.40;;;;;;;14.79;100.00;101621.56;5091557;28;20103;-68
2022/10/28 01:09:27;;;;;;;18.83;9.25;;;;;;;14.75;100.00;101619.75;5095120;28;20020;-67
2022/10/28 01:12:01;;;;;;;15.93;9.57;;;;;;;14.72;100.00;101615.28;5088532;28;20051;-68
2022/10/28 01:14:56;;;;;;;16.48;8.35;;;;;;;14.70;100.00;101610.84;5091231;28;20024;-68
2022/10/28 01:17:43;;;;;;;19.23;9.57;;;;;;;14.67;100.00;101607.28;5092981;28;20432;-68
2022/10/28 01:20:45;;;;;;;15.18;8.68;;;;;;;14.68;100.00;101605.53;5093436;28;20036;-68
2022/10/28 01:23:46;;;;;;;16.25;8.02;;;;;;;14.64;100.00;101601.06;5094087;28;20594;-68
2022/10/28 01:26:40;;;;;;;19.45;8.77;;;;;;;14.63;100.00;101594.00;5092738;28;20032;-68
2022/10/28 01:29:18;;;;;;;17.50;7.63;;;;;;;14.61;100.00;101595.69;5077826;28;20040;-67
2022/10/28 01:32:17;;;;;;;18.65;9.75;;;;;;;14.60;100.00;101593.94;5082249;28;20421;-68
2022/10/28 01:35:08;;;;;;;15.30;7.40;;;;;;;14.57;100.00;101596.50;5055632;28;20056;-68
2022/10/28 01:37:59;;;;;;;19.52;8.77;;;;;;;14.54;100.00;101594.75;5091332;28;20102;-67
2022/10/28 01:40:54;;;;;;;10.98;8.13;;;;;;;14.53;100.00;101592.06;5088219;28;20486;-67
2022/10/28 01:43:27;;;;;;;19.13;9.23;;;;;;;14.50;100.00;101584.97;5086269;28;20028;-67
2022/10/28 01:46:10;;;;;;;18.25;8.48;;;;;;;14.47;100.00;101598.16;5095234;28;20153;-67
2022/10/28 01:48:43;;;;;;;25.00;8.55;;;;;;;14.45;100.00;101578.75;5095123;28;20157;-67
2022/10/28 01:51:20;;;;;;;18.67;8.90;;;;;;;14.42;100.00;101589.28;5089508;28;20024;-67
2022/10/28 01:53:50;;;;;;;15.75;8.65;;;;;;;14.38;100.00;101583.06;5092693;28;20028;-68
2022/10/28 01:56:20;;;;;;;26.63;9.02;;;;;;;14.35;100.00;101585.66;5080815;28;20028;-69
2022/10/28 01:58:47;;;;;;;23.60;8.82;;;;;;;14.34;100.00;101581.25;5090672;28;20047;-68
2022/10/28 02:01:13;;;;;;;14.82;9.32;;;;;;;14.31;100.00;101575.91;5091801;28;20024;-68
2022/10/28 02:03:38;;;;;;;24.00;9.40;;;;;;;14.31;100.00;101575.91;5094406;28;20145;-68
2022/10/28 02:06:11;;;;;;;21.90;8.38;;;;;;;14.29;100.00;101572.34;5092962;28;20028;-68
2022/10/28 02:08:56;;;;;;;18.60;8.95;;;;;;;14.26;100.00;101569.69;5095594;28;20032;-68
2022/10/28 02:11:36;;;;;;;22.27;9.55;;;;;;;14.26;100.00;101561.75;5083430;28;20031;-68
2022/10/28 02:14:28;;;;;;;14.75;7.38;;;;;;;14.25;100.00;101562.59;5084918;28;20166;-68
2022/10/28 02:17:01;;;;;;;20.00;8.07;;;;;;;14.23;100.00;101570.53;5079059;28;20033;-68
2022/10/28 02:20:04;;;;;;;20.55;8.82;;;;;;;14.21;100.00;101566.06;5092145;28;20031;-68
2022/10/28 02:22:31;;;;;;;19.45;8.95;;;;;;;14.18;100.00;101573.97;5091963;28;20046;-68
2022/10/28 02:25:30;;;;;;;20.85;8.95;;;;;;;14.14;100.00;101562.44;5095305;28;20468;-67
2022/10/28 02:28:04;;;;;;;19.23;9.27;;;;;;;14.11;100.00;101558.00;5083363;28;20028;-68
2022/10/28 02:30:29;;;;;;;21.92;10.20;;;;;;;14.10;100.00;101564.16;5093682;28;20035;-68
2022/10/28 02:32:58;;;;;;;17.50;9.48;;;;;;;14.09;100.00;101559.72;5082093;28;20439;-68
2022/10/28 02:35:46;;;;;;;16.70;8.85;;;;;;;14.07;100.00;101566.78;5084404;28;20033;-68
2022/10/28 02:38:18;;;;;;;18.42;9.30;;;;;;;14.07;100.00;101571.19;5094779;28;20034;-69
2022/10/28 02:40:50;;;;;;;16.23;8.65;;;;;;;14.06;100.00;101575.56;5089659;28;20028;-66
2022/10/28 02:43:18;;;;;;;22.13;9.50;;;;;;;14.04;100.00;101572.03;5092910;28;20032;-67
2022/10/28 02:45:48;;;;;;;22.33;8.30;;;;;;;14.04;100.00;101565.84;5092976;28;20024;-68
2022/10/28 02:48:38;;;;;;;19.38;8.68;;;;;;;14.03;100.00;101564.94;5094170;28;20032;-68
2022/10/28 02:51:11;;;;;;;18.67;8.93;;;;;;;14.02;100.00;101568.47;5084194;28;20030;-67
2022/10/28 02:54:02;;;;;;;13.25;8.02;;;;;;;14.00;100.00;101560.50;5075760;28;20047;-68
2022/10/28 02:56:36;;;;;;;16.98;8.73;;;;;;;13.99;100.00;101555.19;5092085;28;20081;-68
2022/10/28 02:59:02;;;;;;;16.73;7.95;;;;;;;13.97;100.00;101551.63;5086665;28;20044;-67
2022/10/28 03:01:27;;;;;;;14.82;8.50;;;;;;;13.96;100.00;101542.81;5091251;28;20114;-67
2022/10/28 03:03:52;;;;;;;18.75;8.45;;;;;;;13.95;100.00;101540.16;5078120;28;20024;-68
2022/10/28 03:06:18;;;;;;;23.52;8.73;;;;;;;13.93;100.00;101542.78;5085276;28;20032;-68
2022/10/28 03:08:43;;;;;;;15.43;8.95;;;;;;;13.91;100.00;101535.69;5076571;28;20585;-67
2022/10/28 03:11:08;;;;;;;17.77;9.38;;;;;;;13.90;100.00;101541.84;5088535;28;20079;-67
2022/10/28 03:13:33;;;;;;;16.58;8.93;;;;;;;13.87;100.00;101533.88;5087872;28;20031;-68
2022/10/28 03:15:59;;;;;;;17.27;8.18;;;;;;;13.82;100.00;101534.69;5093001;28;20529;-68
2022/10/28 03:18:24;;;;;;;16.08;8.45;;;;;;;13.82;100.00;101539.97;5085567;28;20086;-69
2022/10/28 03:20:49;;;;;;;28.75;8.40;;;;;;;13.80;100.00;101539.06;5090767;28;20024;-68
2022/10/28 03:23:15;;;;;;;17.95;8.93;;;;;;;13.78;100.00;101543.44;5087722;28;20057;-67
2022/10/28 03:25:40;;;;;;;16.25;9.02;;;;;;;13.75;100.00;101547.78;5092119;28;20028;-68
2022/10/28 03:28:05;;;;;;;19.95;9.27;;;;;;;13.74;100.00;101541.63;5091745;28;20098;-68
2022/10/28 03:30:30;;;;;;;20.10;8.65;;;;;;;13.73;100.00;101529.25;5091033;28;20019;-68
2022/10/28 03:32:56;;;;;;;19.88;9.07;;;;;;;13.73;100.00;101534.53;5083161;28;20027;-68
2022/10/28 03:35:21;;;;;;;15.52;8.15;;;;;;;13.72;100.00;101540.69;5083024;28;20020;-69
2022/10/28 03:37:46;;;;;;;16.15;8.70;;;;;;;13.71;100.00;101538.91;5093522;28;20070;-68
2022/10/28 03:40:12;;;;;;;24.30;8.80;;;;;;;13.70;100.00;101537.16;5090997;28;20031;-68
2022/10/28 03:42:40;;;;;;;19.42;8.63;;;;;;;13.69;100.00;101532.72;5080929;28;20479;-68
2022/10/28 03:45:06;;;;;;;26.13;9.40;;;;;;;13.68;100.00;101536.22;5074137;28;20028;-68
2022/10/28 03:47:33;;;;;;;19.23;8.57;;;;;;;13.68;100.00;101540.66;5083300;28;20020;-68
2022/10/28 03:49:58;;;;;;;21.25;9.65;;;;;;;13.66;100.00;101543.28;5088942;28;20039;-69
2022/10/28 03:52:24;;;;;;;19.83;9.10;;;;;;;13.66;100.00;101543.28;5079858;28;20103;-68
2022/10/28 03:54:49;;;;;;;20.48;9.27;;;;;;;13.66;100.00;101538.84;5083805;28;20043;-68
2022/10/28 03:57:15;;;;;;;20.75;8.55;;;;;;;13.64;100.00;101537.06;5085880;28;20024;-68
2022/10/28 03:59:41;;;;;;;21.45;8.25;;;;;;;13.63;100.00;101532.63;5082582;28;20406;-68
2022/10/28 04:02:06;;;;;;;18.85;8.80;;;;;;;13.64;100.00;101531.75;5088088;28;20024;-68
2022/10/28 04:04:31;;;;;;;16.23;8.88;;;;;;;13.64;100.00;101526.47;5086965;28;20047;-68
2022/10/28 04:06:57;;;;;;;18.90;8.45;;;;;;;13.62;100.00;101523.81;5092550;28;20479;-68
2022/10/28 04:09:22;;;;;;;19.52;8.93;;;;;;;13.62;100.00;101515.00;5091156;28;20032;-68
2022/10/28 04:11:50;;;;;;;22.02;9.68;;;;;;;13.57;100.00;101517.56;5087645;28;20503;-68
2022/10/28 04:14:15;;;;;;;16.20;9.07;;;;;;;13.53;100.00;101514.84;5078767;28;20363;-68
2022/10/28 04:16:40;;;;;;;18.98;8.38;;;;;;;13.46;100.00;101516.50;5087505;28;20027;-68
2022/10/28 04:19:06;;;;;;;20.52;8.63;;;;;;;13.40;100.00;101517.31;5090107;28;20091;-68
2022/10/28 04:21:31;;;;;;;18.10;8.88;;;;;;;13.38;100.00;101513.75;5082261;28;20024;-68
2022/10/28 04:23:57;;;;;;;17.23;9.07;;;;;;;13.35;100.00;101515.41;5083887;28;20495;-68
2022/10/28 04:26:22;;;;;;;23.50;9.35;;;;;;;13.32;100.00;101509.22;5092607;28;20368;-68
2022/10/28 04:28:47;;;;;;;22.55;8.15;;;;;;;13.33;100.00;101512.75;5081362;28;20039;-68
2022/10/28 04:31:13;;;;;;;16.98;7.93;;;;;;;13.35;100.00;101510.13;5078953;28;20024;-68
2022/10/28 04:33:38;;;;;;;22.60;9.02;;;;;;;13.37;100.00;101513.72;5076224;28;20500;-68
2022/10/28 04:36:04;;;;;;;21.45;8.50;;;;;;;13.36;100.00;101510.19;5087466;28;20073;-68
2022/10/28 04:38:29;;;;;;;21.92;8.13;;;;;;;13.32;100.00;101510.94;5093734;28;20032;-67
2022/10/28 04:40:54;;;;;;;20.38;8.35;;;;;;;13.29;100.00;101508.28;5086021;28;20044;-67
2022/10/28 04:43:20;;;;;;;19.23;7.82;;;;;;;13.26;100.00;101516.16;5091206;28;20026;-68
2022/10/28 04:45:46;;;;;;;14.20;7.53;;;;;;;13.22;100.00;101517.84;5090434;28;20020;-68
2022/10/28 04:48:11;;;;;;;16.95;8.45;;;;;;;13.19;100.00;101524.84;5079215;28;20024;-68
2022/10/28 04:50:36;;;;;;;16.60;8.30;;;;;;;13.18;100.00;101533.66;5087493;28;20031;-68
2022/10/28 04:53:02;;;;;;;15.95;8.48;;;;;;;13.14;100.00;101532.69;5079982;28;20567;-68
2022/10/28 04:55:27;;;;;;;18.75;8.35;;;;;;;13.13;100.00;101526.53;5090338;28;20097;-67
2022/10/28 04:57:55;;;;;;;20.60;8.57;;;;;;;13.13;100.00;101515.97;5096016;28;20094;-67
2022/10/28 05:00:20;;;;;;;16.70;7.97;;;;;;;13.16;100.00;101510.72;5092180;28;20028;-67
2022/10/28 05:02:45;;;;;;;18.88;9.82;;;;;;;13.15;100.00;101502.78;5087982;28;20020;-67
2022/10/28 05:05:11;;;;;;;20.02;7.90;;;;;;;13.16;100.00;101494.88;5092198;28;20030;-68
2022/10/28 05:07:37;;;;;;;17.10;8.55;;;;;;;13.13;100.00;101505.38;5094876;28;20027;-68
2022/10/28 05:10:02;;;;;;;15.63;7.90;;;;;;;13.10;100.00;101497.41;5094377;28;20074;-68
2022/10/28 05:12:28;;;;;;;15.50;7.68;;;;;;;13.06;100.00;101506.16;5085206;28;20020;-68
2022/10/28 05:14:53;;;;;;;24.58;8.10;;;;;;;13.04;100.00;101494.66;5094825;28;20024;-68
2022/10/28 05:17:18;;;;;;;17.17;7.38;;;;;;;13.03;100.00;101494.63;5079991;28;20107;-68
2022/10/28 05:19:44;;;;;;;21.85;8.77;;;;;;;13.03;100.00;101492.00;5088905;28;20031;-68
2022/10/28 05:22:09;;;;;;;23.08;8.88;;;;;;;13.02;100.00;101495.50;5089733;28;20063;-69
2022/10/28 05:24:34;;;;;;;21.40;8.18;;;;;;;12.99;100.00;101498.97;5094949;28;20043;-69
2022/10/28 05:27:00;;;;;;;25.08;8.57;;;;;;;13.00;100.00;101503.41;5083575;28;20383;-67
2022/10/28 05:29:25;;;;;;;18.25;8.18;;;;;;;13.01;100.00;101499.00;5092069;28;20058;-68
2022/10/28 05:31:50;;;;;;;17.33;8.07;;;;;;;13.03;100.00;101503.44;5092351;28;20028;-67
2022/10/28 05:34:16;;;;;;;17.13;7.93;;;;;;;13.04;100.00;101507.88;5077747;28;20021;-68
2022/10/28 05:36:41;;;;;;;20.77;7.93;;;;;;;13.06;100.00;101507.91;5086526;28;20028;-67
2022/10/28 05:39:06;;;;;;;18.42;7.63;;;;;;;13.08;100.00;101507.06;5085236;28;20055;-67
2022/10/28 05:41:31;;;;;;;19.40;8.77;;;;;;;13.11;100.00;101507.09;5095090;28;20031;-68
2022/10/28 05:43:57;;;;;;;22.75;8.73;;;;;;;13.14;100.00;101498.34;5092883;28;20047;-67
2022/10/28 05:46:22;;;;;;;20.10;7.72;;;;;;;13.18;100.00;101501.94;5093708;28;20117;-67
2022/10/28 05:48:48;;;;;;;14.77;8.45;;;;;;;13.19;100.00;101493.16;5078703;28;20028;-68
2022/10/28 05:51:13;;;;;;;20.02;7.95;;;;;;;13.20;100.00;101489.63;5086424;28;20024;-67
2022/10/28 05:53:40;;;;;;;21.50;9.02;;;;;;;13.21;100.00;101488.75;5083778;28;20036;-67
2022/10/28 05:56:06;;;;;;;14.75;8.00;;;;;;;13.25;100.00;101495.88;5082924;28;20066;-68
2022/10/28 05:58:31;;;;;;;23.55;9.85;;;;;;;13.25;100.00;101491.50;5078673;28;20131;-68
2022/10/28 06:00:57;;;;;;;16.90;7.47;;;;;;;13.24;100.00;101492.34;5092277;28;20029;-68
2022/10/28 06:03:22;;;;;;;13.02;7.18;;;;;;;13.23;100.00;101487.06;5095007;28;20028;-68
2022/10/28 06:05:47;;;;;;;22.13;8.15;;;;;;;13.24;100.00;101483.50;5093098;28;20028;-68
2022/10/28 06:08:13;;;;;;;18.58;6.82;;;;;;;13.23;100.00;101485.28;5087670;28;20032;-67
2022/10/28 06:10:39;;;;;;;17.50;8.65;;;;;;;13.23;100.00;101480.00;5092579;28;20111;-68
2022/10/28 06:13:05;;;;;;;19.27;7.75;;;;;;;13.22;100.00;101487.91;5077333;28;20484;-68
2022/10/28 06:15:30;;;;;;;21.13;7.53;;;;;;;13.21;100.00;101486.13;5084310;28;20022;-69
2022/10/28 06:17:55;;;;;;;17.88;7.22;;;;;;;13.18;100.00;101476.38;5087331;28;20035;-68
2022/10/28 06:20:21;;;;;;;15.75;7.03;;;;;;;13.19;100.00;101478.16;5089889;28;20125;-68
2022/10/28 06:22:55;;;;;;;11.50;6.50;;;;;;;13.21;100.00;101475.53;5075775;28;20460;-68
2022/10/28 06:25:24;;;;;;;12.07;7.05;;;;;;;13.19;100.00;101477.28;5087900;28;20031;-68
2022/10/28 06:27:57;;;;;;;14.32;7.15;;;;;;;13.16;100.00;101479.00;5091828;28;20028;-68
2022/10/28 06:30:23;;;;;;;14.98;6.70;;;;;;;13.14;100.00;101480.75;5091459;28;20474;-67
2022/10/28 06:32:49;;;;;;;16.95;6.88;;;;;;;13.14;100.00;101486.03;5081808;28;20024;-68
2022/10/28 06:35:14;;;;;;;18.67;7.00;;;;;;;13.12;100.00;101477.19;5075309;28;20094;-67
2022/10/28 06:37:40;;;;;;;21.02;8.13;;;;;;;13.14;100.00;101482.47;5089211;28;20024;-68
2022/10/28 06:40:06;;;;;;;18.70;7.40;;;;;;;13.15;100.00;101479.88;5093653;28;20357;-67
2022/10/28 06:42:31;;;;;;;21.55;7.07;;;;;;;13.15;100.00;101487.78;5093344;28;20124;-68
2022/10/28 06:44:56;;;;;;;15.55;7.15;;;;;;;13.16;100.00;101489.56;5087076;28;20122;-69
2022/10/28 06:47:22;;;;;;;14.02;6.93;;;;;;;13.15;100.00;101486.91;5093049;28;20034;-68
2022/10/28 06:49:47;;;;;;;17.10;5.90;;;;;;;13.13;100.00;101489.53;5093075;28;20410;-68
2022/10/28 06:52:12;;;;;;;17.45;6.05;;;;;;;13.14;100.00;101490.41;5088423;28;20118;-67
2022/10/28 06:54:38;;;;;;;19.25;7.05;;;;;;;13.13;100.00;101488.63;5091999;28;20028;-67
2022/10/28 06:57:03;;;;;;;17.40;7.40;;;;;;;13.13;100.00;101493.91;5075108;28;20039;-68
2022/10/28 06:59:29;;;;;;;12.82;6.85;;;;;;;13.13;100.00;101494.81;5073948;28;20024;-69
2022/10/28 07:01:54;;;;;;;14.70;6.22;;;;;;;13.17;100.00;101495.75;5078279;28;20036;-68
2022/10/28 07:04:19;;;;;;;16.27;7.25;;;;;;;13.23;100.00;101495.84;5083280;28;21296;-67
2022/10/28 07:06:45;;;;;;;18.70;7.13;;;;;;;13.29;100.00;101501.25;5088118;28;20024;-68
2022/10/28 07:09:13;;;;;;;16.38;7.30;;;;;;;13.40;100.00;101503.19;5079572;28;20025;-68
2022/10/28 07:11:39;;;;;;;19.23;6.13;;;;;;;13.50;100.00;101505.13;5077712;28;20021;-68
2022/10/28 07:14:05;;;;;;;16.88;7.75;;;;;;;13.60;100.00;101512.31;5083508;28;20039;-68
2022/10/28 07:16:30;;;;;;;13.52;7.00;;;;;;;13.73;100.00;101509.88;5079651;28;20031;-68
2022/10/28 07:18:55;;;;;;;14.32;6.18;;;;;;;13.84;100.00;101510.91;5085792;28;20044;-68
2022/10/28 07:21:24;;;;;;;25.95;7.05;;;;;;;13.95;100.00;101513.69;5075829;28;20024;-68
2022/10/28 07:23:49;;;;;;;16.67;6.65;;;;;;;14.03;100.00;101504.09;5076934;28;20027;-68
2022/10/28 07:26:15;;;;;;;23.50;7.53;;;;;;;14.16;100.00;101500.72;5074456;28;20392;-67
2022/10/28 07:28:41;;;;;;;15.63;6.72;;;;;;;14.27;100.00;101507.91;5087229;28;20566;-67
2022/10/28 07:31:07;;;;;;;16.35;6.50;;;;;;;14.35;100.00;101508.88;5076620;28;20115;-68
2022/10/28 07:33:32;;;;;;;15.80;7.20;;;;;;;14.45;100.00;101509.88;5076593;28;20027;-68
2022/10/28 07:35:58;;;;;;;15.77;6.00;;;;;;;14.52;100.00;101509.09;5084701;28;20031;-68
2022/10/28 07:38:23;;;;;;;10.15;5.60;;;;;;;14.59;100.00;101523.28;5077539;28;20024;-67
2022/10/28 07:40:48;;;;;;;16.85;6.00;;;;;;;14.67;100.00;101524.28;5081997;28;20423;-68
2022/10/28 07:43:14;;;;;;;17.88;6.70;;;;;;;14.72;100.00;101521.66;5081640;28;20114;-68
2022/10/28 07:45:39;;;;;;;22.33;7.13;;;;;;;14.77;100.00;101522.59;5082006;28;20056;-68
2022/10/28 07:48:05;;;;;;;26.33;6.68;;;;;;;14.82;100.00;101532.38;5087058;28;20353;-68
2022/10/28 07:50:31;;;;;;;20.73;5.72;;;;;;;14.90;100.00;101531.59;5075839;28;20078;-68
2022/10/28 07:52:56;;;;;;;15.95;5.93;;;;;;;14.92;100.00;101533.38;5072321;28;20028;-69
2022/10/28 07:55:21;;;;;;;17.17;6.60;;;;;;;14.99;100.00;101539.63;5073282;28;20020;-68
2022/10/28 07:57:47;;;;;;;15.65;5.80;;;;;;;15.04;100.00;101539.66;5078825;28;20097;-68
2022/10/28 08:00:13;;;;;;;16.42;6.32;;;;;;;15.06;100.00;101540.56;5080714;28;20056;-67
2022/10/28 08:02:38;;;;;;;20.08;6.10;;;;;;;15.10;100.00;101529.13;5083560;28;20030;-68
2022/10/28 08:05:05;;;;;;;17.40;5.93;;;;;;;15.17;100.00;101525.66;5083065;28;20474;-67
2022/10/28 08:07:31;;;;;;;21.58;6.78;;;;;;;15.21;100.00;101530.09;5077958;28;20086;-69
2022/10/28 08:10:00;;;;;;;15.35;5.95;;;;;;;15.25;100.00;101525.72;5082436;28;20077;-68
2022/10/28 08:12:27;;;;;;;13.48;5.40;;;;;;;15.33;100.00;101524.00;5082699;28;20533;-68
2022/10/28 08:14:53;;;;;;;14.88;6.55;;;;;;;15.35;100.00;101527.53;5080949;28;20135;-69
2022/10/28 08:17:18;;;;;;;14.10;5.40;;;;;;;15.39;100.00;101534.66;5083127;28;20142;-68
2022/10/28 08:19:44;;;;;;;19.85;6.53;;;;;;;15.45;100.00;101529.41;5098224;28;20107;-70
2022/10/28 08:22:09;;;;;;;19.42;5.50;;;;;;;15.54;100.00;101528.56;5076687;28;20067;-69
2022/10/28 08:24:35;;;;;;;13.55;5.47;;;;;;;15.61;100.00;101530.41;5090156;28;20020;-68
2022/10/28 08:27:01;;;;;;;13.07;5.70;;;;;;;15.68;100.00;101521.59;5081766;28;20031;-68
2022/10/28 08:29:26;;;;;;;12.02;5.55;;;;;;;15.75;100.00;101535.78;5089071;28;20051;-67
2022/10/28 08:31:51;;;;;;;9.07;5.43;;;;;;;15.83;100.00;101536.75;5080322;28;20039;-67
2022/10/28 08:34:16;;;;;;;22.60;5.32;;;;;;;15.91;100.00;101538.56;5079354;28;20058;-68
2022/10/28 08:36:42;;;;;;;14.02;5.72;;;;;;;15.98;100.00;101530.66;5087872;28;20130;-68
2022/10/28 08:39:07;;;;;;;16.65;5.47;;;;;;;16.04;100.00;101535.09;5084597;28;20099;-68
2022/10/28 08:41:43;;;;;;;13.77;5.20;;;;;;;16.08;100.00;101531.56;5078682;28;20034;-68
2022/10/28 08:44:31;;;;;;;15.13;5.72;;;;;;;16.15;100.00;101532.50;5077605;28;20029;-70
2022/10/28 08:47:12;;;;;;;17.27;5.60;;;;;;;16.20;100.00;101536.06;5077594;28;20464;-68
2022/10/28 08:49:40;;;;;;;18.98;5.78;;;;;;;16.23;100.00;101537.84;5075810;28;20107;-70
2022/10/28 08:52:14;;;;;;;16.25;5.75;;;;;;;16.25;100.00;101522.78;5077662;28;20028;-68
2022/10/28 08:54:52;;;;;;;12.10;5.15;;;;;;;16.28;100.00;101522.81;5086456;28;20036;-68
2022/10/28 08:57:30;;;;;;;17.80;5.63;;;;;;;16.30;100.00;101529.00;5079972;28;20031;-67
2022/10/28 08:59:57;;;;;;;14.38;5.28;;;;;;;16.32;100.00;101524.63;5083644;28;20032;-67
2022/10/28 09:02:27;;;;;;;17.85;4.93;;;;;;;16.36;100.00;101526.41;5085516;28;20059;-68
2022/10/28 09:05:04;;;;;;;19.58;5.20;;;;;;;16.47;100.00;101524.66;5074421;28;20496;-68
2022/10/28 09:07:32;;;;;;;9.77;4.70;;;;;;;16.55;100.00;101529.09;5079310;28;20585;-68
2022/10/28 09:09:58;;;;;;;12.02;5.53;;;;;;;16.64;100.00;101532.69;5086501;28;20139;-67
2022/10/28 09:12:39;;;;;;;12.75;5.03;;;;;;;16.80;100.00;101527.38;5073707;28;20123;-67
2022/10/28 09:15:16;;;;;;;15.75;5.13;;;;;;;17.05;100.00;101531.00;5082126;28;20028;-68
2022/10/28 09:17:54;;;;;;;19.35;5.30;;;;;;;17.28;100.00;101527.44;5077336;28;20028;-68
2022/10/28 09:20:49;;;;;;;11.57;4.80;;;;;;;17.53;100.00;101536.31;5077962;28;20486;-68
2022/10/28 09:23:25;;;;;;;17.85;4.85;;;;;;;17.77;100.00;101530.06;5079957;28;20039;-67
2022/10/28 09:26:08;;;;;;;15.60;4.53;;;;;;;17.97;100.00;101542.47;5086874;28;20024;-66
2022/10/28 09:28:53;;;;;;;17.67;4.43;;;;;;;18.19;100.00;101537.94;5083371;28;20899;-68
2022/10/28 09:31:34;;;;;;;18.60;4.65;;;;;;;18.42;100.00;101540.53;5083424;28;20031;-67
2022/10/28 09:34:05;;;;;;;12.93;3.95;;;;;;;18.63;100.00;101539.50;5082898;28;20070;-68
2022/10/28 09:36:50;;;;;;;14.32;4.40;;;;;;;18.81;100.00;101527.84;5089122;28;20118;-67
2022/10/28 09:39:20;;;;;;;14.20;4.88;;;;;;;19.01;100.00;101532.19;5083476;28;20024;-68
2022/10/28 09:41:48;;;;;;;15.98;4.47;;;;;;;19.10;100.00;101528.56;5085091;28;20480;-68
2022/10/28 09:44:20;;;;;;;12.48;4.18;;;;;;;19.34;100.00;101540.81;5093331;28;20020;-69
2022/10/28 09:46:53;;;;;;;12.05;4.13;;;;;;;19.42;100.00;101530.94;5092760;28;20032;-68
2022/10/28 09:49:33;;;;;;;17.55;4.68;;;;;;;19.49;100.00;101540.69;5087885;28;20435;-69
2022/10/28 09:52:23;;;;;;;19.38;3.97;;;;;;;19.49;100.00;101531.78;5086481;28;20028;-68
2022/10/28 09:54:53;;;;;;;13.15;4.35;;;;;;;19.49;100.00;101527.34;5100160;28;20089;-68
2022/10/28 09:57:21;;;;;;;14.02;3.75;;;;;;;19.39;100.00;101517.63;5086055;28;20091;-67
2022/10/28 09:59:47;;;;;;;16.17;3.78;;;;;;;19.46;100.00;101514.00;5094690;28;20055;-67
2022/10/28 10:02:24;;;;;;;14.77;4.10;;;;;;;19.65;100.00;101519.16;5086597;28;20046;-67
2022/10/28 10:04:50;;;;;;;16.15;4.10;;;;;;;19.74;100.00;101503.06;5086685;28;20028;-67
2022/10/28 10:07:48;;;;;;;22.23;4.60;;;;;;;19.90;100.00;101505.56;5094559;28;20030;-67
2022/10/28 10:10:27;;;;;;;18.63;3.85;;;;;;;20.05;100.00;101506.28;5085427;28;20048;-68
2022/10/28 10:12:59;;;;;;;12.70;3.67;;;;;;;20.38;100.00;101516.56;5094365;28;20040;-68
2022/10/28 10:15:56;;;;;;;19.45;6.03;;;;;;;20.62;100.00;101514.44;5089121;28;20092;-67
2022/10/28 10:18:25;;;;;;;10.02;4.32;;;;;;;20.62;100.00;101547.44;5093676;28;20181;-67
2022/10/28 10:20:57;;;;;;;18.35;4.00;;;;;;;20.54;100.00;101542.16;5072766;28;20040;-66
2022/10/28 10:23:35;;;;;;;13.35;3.88;;;;;;;20.29;100.00;101530.03;5073427;28;20498;-67
2022/10/28 10:26:13;;;;;;;12.95;3.80;;;;;;;20.27;100.00;101547.91;5088574;28;20121;-66
2022/10/28 10:28:49;;;;;;;17.95;4.95;;;;;;;20.18;100.00;101549.78;5088094;28;20669;-67
2022/10/28 10:31:24;;;;;;;20.02;5.00;;;;;;;19.98;100.00;101544.66;5081408;28;20031;-67
2022/10/28 10:33:52;;;;;;;13.70;3.95;;;;;;;19.82;100.00;101540.41;5088554;28;20028;-67
2022/10/28 10:36:22;;;;;;;11.55;4.05;;;;;;;19.80;100.00;101537.72;5093751;28;20028;-68
2022/10/28 10:38:48;;;;;;;21.42;4.60;;;;;;;19.88;100.00;101546.53;5090225;28;20024;-67
2022/10/28 10:41:34;;;;;;;20.00;4.07;;;;;;;19.81;100.00;101541.28;5085238;28;20099;-67
2022/10/28 10:44:00;;;;;;;14.50;4.47;;;;;;;19.75;100.00;101543.97;5080776;28;20058;-66
2022/10/28 10:46:26;;;;;;;19.10;4.45;;;;;;;19.80;100.00;101539.50;5085175;28;20028;-67
2022/10/28 10:49:14;;;;;;;18.13;4.47;;;;;;;19.68;100.00;101556.50;5078115;28;20035;-68
2022/10/28 10:52:14;;;;;;;15.30;4.55;;;;;;;19.66;100.00;101555.66;5089696;28;20027;-67
2022/10/28 10:54:55;;;;;;;15.57;4.97;;;;;;;19.69;100.00;101544.94;5082878;28;20040;-67
2022/10/28 10:57:21;;;;;;;23.73;4.55;;;;;;;19.57;100.00;101545.06;5081767;28;20028;-68
2022/10/28 10:59:51;;;;;;;15.10;3.83;;;;;;;19.54;100.00;101538.84;5087558;28;20024;-68
2022/10/28 11:02:30;;;;;;;14.65;4.15;;;;;;;19.55;100.00;101543.28;5080607;28;20026;-69
2022/10/28 11:05:01;;;;;;;15.23;4.00;;;;;;;19.58;100.00;101536.16;5082028;28;20388;-69
2022/10/28 11:07:27;;;;;;;17.55;4.72;;;;;;;19.58;100.00;101541.50;5087450;28;20030;-67
2022/10/28 11:09:54;;;;;;;12.52;4.05;;;;;;;19.66;100.00;101561.88;5074873;28;20032;-67
2022/10/28 11:12:29;;;;;;;17.55;4.55;;;;;;;19.80;100.00;101559.09;5078687;28;20024;-68
2022/10/28 11:15:18;;;;;;;14.90;4.20;;;;;;;19.95;100.00;101557.16;5079191;28;20028;-66
2022/10/28 11:17:54;;;;;;;17.70;4.45;;;;;;;19.98;100.00;101562.47;5079689;28;20036;-67
2022/10/28 11:20:31;;;;;;;11.05;3.47;;;;;;;20.02;100.00;101559.75;5076527;28;20047;-66
2022/10/28 11:23:10;;;;;;;18.25;4.00;;;;;;;20.01;100.00;101562.44;5073971;28;20461;-66